createdAt,value
2022-09-17T00:01:43.971Z,7.30
2022-09-17T00:05:45.652Z,5.57
2022-09-17T00:09:47.314Z,10.00
2022-09-17T00:13:50.824Z,9.43
2022-09-17T00:17:57.896Z,5.25
2022-09-17T00:21:59.511Z,8.75
2022-09-17T00:26:06.043Z,11.68
2022-09-17T00:30:08.437Z,11.73
2022-09-17T00:34:10.162Z,6.97
2022-09-17T00:38:12.012Z,8.07
2022-09-17T00:42:15.853Z,9.65
2022-09-17T00:46:40.161Z,12.20
2022-09-17T00:50:44.538Z,10.13
2022-09-17T00:54:54.167Z,7.03
2022-09-17T00:58:56.345Z,13.05
2022-09-17T01:02:58.631Z,15.23
2022-09-17T01:07:09.500Z,9.82
2022-09-17T01:11:15.531Z,8.05
2022-09-17T01:15:25.950Z,9.70
2022-09-17T01:19:33.553Z,10.30
2022-09-17T01:24:02.906Z,12.30
2022-09-17T01:28:27.134Z,9.40
2022-09-17T01:33:23.558Z,17.58
2022-09-17T01:37:32.560Z,15.68
2022-09-17T01:42:12.715Z,9.38
2022-09-17T01:46:22.088Z,9.52
2022-09-17T01:50:29.459Z,9.98
2022-09-17T01:59:17.787Z,9.75
2022-09-17T02:03:27.969Z,7.07
2022-09-17T02:07:31.924Z,13.30
2022-09-17T02:11:37.018Z,7.12
2022-09-17T02:15:43.458Z,8.98
2022-09-17T02:19:45.685Z,12.90
2022-09-17T02:24:19.604Z,12.07
2022-09-17T02:28:45.061Z,8.50
2022-09-17T02:32:46.772Z,11.43
2022-09-17T02:36:48.615Z,12.40
2022-09-17T02:40:56.494Z,12.70
2022-09-17T02:45:24.354Z,10.63
2022-09-17T02:49:50.004Z,9.95
2022-09-17T02:54:02.589Z,12.55
2022-09-17T02:58:24.663Z,13.60
2022-09-17T03:02:33.718Z,17.92
2022-09-17T03:06:35.443Z,12.43
2022-09-17T03:10:37.556Z,10.48
2022-09-17T03:14:39.159Z,13.05
2022-09-17T03:18:40.787Z,12.02
2022-09-17T03:22:43.005Z,15.07
2022-09-17T03:26:44.812Z,13.15
2022-09-17T03:30:46.785Z,12.82
2022-09-17T03:34:48.407Z,8.63
2022-09-17T03:38:55.414Z,11.52
2022-09-17T03:42:57.106Z,15.52
2022-09-17T03:46:58.962Z,10.85
2022-09-17T03:51:01.428Z,11.32
2022-09-17T03:55:03.528Z,16.17
2022-09-17T03:59:05.158Z,17.00
2022-09-17T04:03:06.894Z,11.77
2022-09-17T04:07:08.683Z,18.58
2022-09-17T04:11:10.449Z,11.00
2022-09-17T04:15:12.300Z,14.07
2022-09-17T04:19:14.002Z,11.82
2022-09-17T04:23:15.663Z,12.60
2022-09-17T04:27:17.294Z,11.95
2022-09-17T04:31:18.964Z,14.87
2022-09-17T04:35:20.655Z,12.40
2022-09-17T04:39:22.278Z,15.57
2022-09-17T04:43:23.985Z,8.88
2022-09-17T04:47:26.088Z,15.23
2022-09-17T04:51:27.757Z,8.82
2022-09-17T04:55:29.422Z,12.30
2022-09-17T04:59:31.027Z,11.07
2022-09-17T05:03:32.683Z,12.37
2022-09-17T05:07:34.449Z,6.90
2022-09-17T05:11:36.191Z,13.55
2022-09-17T05:15:37.807Z,16.12
2022-09-17T05:19:39.446Z,11.05
2022-09-17T05:23:41.031Z,11.82
2022-09-17T05:27:43.322Z,10.57
2022-09-17T05:31:45.104Z,12.93
2022-09-17T05:35:47.138Z,14.60
2022-09-17T05:39:48.809Z,8.63
2022-09-17T05:43:51.129Z,7.20
2022-09-17T05:47:59.934Z,10.38
2022-09-17T05:52:03.453Z,11.50
2022-09-17T05:56:05.322Z,7.85
2022-09-17T06:00:07.734Z,11.57
2022-09-17T06:04:09.588Z,9.25
2022-09-17T06:08:11.254Z,12.15
2022-09-17T06:12:12.890Z,13.07
2022-09-17T06:16:14.569Z,9.73
2022-09-17T06:20:16.329Z,9.70
2022-09-17T06:24:18.016Z,12.80
2022-09-17T06:28:19.812Z,12.90
2022-09-17T06:32:21.447Z,11.80
2022-09-17T06:36:23.064Z,9.15
2022-09-17T06:40:24.844Z,12.60
2022-09-17T06:44:26.556Z,10.32
2022-09-17T06:48:29.857Z,12.15
2022-09-17T06:52:31.524Z,12.15
2022-09-17T06:56:34.307Z,8.68
2022-09-17T07:00:36.341Z,8.02
2022-09-17T07:04:37.983Z,12.45
2022-09-17T07:08:39.737Z,12.60
2022-09-17T07:12:44.493Z,12.90
2022-09-17T07:16:48.303Z,7.37
2022-09-17T07:20:54.120Z,12.90
2022-09-17T07:24:55.759Z,7.47
2022-09-17T07:28:57.416Z,7.87
2022-09-17T07:33:02.234Z,10.05
2022-09-17T07:37:03.954Z,7.47
2022-09-17T07:41:13.199Z,8.23
2022-09-17T07:45:14.905Z,10.43
2022-09-17T07:49:16.485Z,11.35
2022-09-17T07:53:18.579Z,9.77
2022-09-17T07:57:20.151Z,9.90
2022-09-17T08:01:22.579Z,10.30
2022-09-17T08:05:25.140Z,8.85
2022-09-17T08:09:26.747Z,6.97
2022-09-17T08:13:28.808Z,9.25
2022-09-17T08:17:30.585Z,8.88
2022-09-17T08:21:32.206Z,7.28
2022-09-17T08:25:33.827Z,9.27
2022-09-17T08:29:35.592Z,7.40
2022-09-17T08:33:39.426Z,7.80
2022-09-17T08:37:41.010Z,7.03
2022-09-17T08:42:02.897Z,9.77
2022-09-17T08:46:04.612Z,8.07
2022-09-17T08:50:32.585Z,11.73
2022-09-17T08:59:18.415Z,6.57
2022-09-17T09:03:41.383Z,7.35
2022-09-17T09:08:01.504Z,8.95
2022-09-17T09:12:37.532Z,6.47
2022-09-17T09:16:42.479Z,9.68
2022-09-17T09:20:49.796Z,7.32
2022-09-17T09:29:28.782Z,8.55
2022-09-17T09:33:35.821Z,12.10
2022-09-17T09:37:43.022Z,7.12
2022-09-17T09:46:07.039Z,6.20
2022-09-17T09:50:48.322Z,7.75
2022-09-17T09:55:32.144Z,5.90
2022-09-17T09:59:36.103Z,5.35
2022-09-17T10:03:42.011Z,7.45
2022-09-17T10:07:45.279Z,8.20
2022-09-17T10:12:00.796Z,3.85
2022-09-17T10:16:25.348Z,7.78
2022-09-17T10:20:27.086Z,8.75
2022-09-17T10:24:31.935Z,4.70
2022-09-17T10:28:48.829Z,5.82
2022-09-17T10:33:22.781Z,6.60
2022-09-17T10:37:44.332Z,3.55
2022-09-17T10:42:21.958Z,5.87
2022-09-17T10:46:30.432Z,2.90
2022-09-17T10:50:34.388Z,9.18
2022-09-17T10:55:05.062Z,7.12
2022-09-17T10:59:30.268Z,4.82
2022-09-17T11:04:06.181Z,4.70
2022-09-17T11:08:20.756Z,5.00
2022-09-17T11:12:45.815Z,5.80
2022-09-17T11:17:10.920Z,5.43
2022-09-17T11:21:58.954Z,7.57
2022-09-17T11:26:08.241Z,5.28
2022-09-17T11:30:19.582Z,4.03
2022-09-17T11:34:36.728Z,4.72
2022-09-17T11:38:52.578Z,3.80
2022-09-17T11:43:14.566Z,5.07
2022-09-17T11:47:24.315Z,3.97
2022-09-17T11:51:31.903Z,2.78
2022-09-17T11:55:50.819Z,2.17
2022-09-17T12:00:05.630Z,3.35
2022-09-17T12:04:31.459Z,3.72
2022-09-17T12:08:56.806Z,1.95
2022-09-17T12:13:02.872Z,1.42
2022-09-17T12:17:05.975Z,2.90
2022-09-17T12:21:13.670Z,3.00
2022-09-17T12:25:15.974Z,1.40
2022-09-17T12:29:36.296Z,4.50
2022-09-17T12:33:46.003Z,5.57
2022-09-17T12:38:02.697Z,3.12
2022-09-17T12:42:33.470Z,2.90
2022-09-17T12:46:53.768Z,0.68
2022-09-17T12:51:09.437Z,1.55
2022-09-17T12:55:44.179Z,1.35
2022-09-17T13:00:08.195Z,3.42
2022-09-17T13:05:07.029Z,4.00
2022-09-17T13:09:55.742Z,2.72
2022-09-17T13:18:59.280Z,2.62
2022-09-17T13:23:07.727Z,3.33
2022-09-17T13:27:22.412Z,4.07
2022-09-17T13:31:38.945Z,4.75
2022-09-17T13:35:40.482Z,3.35
2022-09-17T13:39:47.754Z,9.15
2022-09-17T13:47:58.913Z,2.83
2022-09-17T13:52:00.599Z,5.32
2022-09-17T13:56:36.567Z,4.07
2022-09-17T14:00:51.933Z,5.75
2022-09-17T14:04:55.953Z,4.20
2022-09-17T14:08:57.859Z,4.37
2022-09-17T14:13:24.524Z,6.00
2022-09-17T14:17:50.650Z,3.28
2022-09-17T14:22:00.346Z,5.55
2022-09-17T14:26:08.305Z,4.22
2022-09-17T14:30:18.365Z,1.75
2022-09-17T14:34:23.595Z,6.47
2022-09-17T14:38:50.684Z,4.37
2022-09-17T14:42:56.762Z,8.03
2022-09-17T14:47:11.614Z,4.30
2022-09-17T14:51:19.605Z,4.07
2022-09-17T14:55:27.886Z,5.43
2022-09-17T14:59:29.465Z,7.57
2022-09-17T15:03:31.246Z,4.72
2022-09-17T15:07:32.879Z,8.18
2022-09-17T15:11:40.963Z,4.65
2022-09-17T15:15:56.365Z,5.20
2022-09-17T15:19:59.231Z,5.62
2022-09-17T15:24:31.532Z,5.65
2022-09-17T15:28:33.098Z,4.20
2022-09-17T15:32:35.319Z,6.95
2022-09-17T15:36:37.452Z,6.35
2022-09-17T15:40:41.159Z,8.32
2022-09-17T15:44:44.400Z,6.35
2022-09-17T15:48:46.001Z,5.72
2022-09-17T15:52:48.570Z,3.53
2022-09-17T15:56:56.646Z,5.30
2022-09-17T16:01:17.038Z,3.40
2022-09-17T16:05:38.740Z,7.70
2022-09-17T16:09:48.699Z,5.22
2022-09-17T16:13:51.955Z,7.62
2022-09-17T16:17:53.648Z,5.53
2022-09-17T16:21:55.248Z,3.92
2022-09-17T16:25:57.696Z,5.15
2022-09-17T16:30:05.576Z,3.25
2022-09-17T16:34:07.156Z,3.70
2022-09-17T16:38:09.590Z,2.40
2022-09-17T16:42:11.247Z,4.28
2022-09-17T16:46:13.210Z,6.35
2022-09-17T16:50:16.610Z,6.47
2022-09-17T16:54:18.311Z,2.35
2022-09-17T16:58:19.928Z,2.50
2022-09-17T17:02:21.711Z,6.18
2022-09-17T17:06:23.307Z,5.07
2022-09-17T17:10:26.432Z,4.43
2022-09-17T17:14:28.111Z,5.45
2022-09-17T17:18:29.929Z,8.40
2022-09-17T17:22:31.548Z,6.70
2022-09-17T17:26:33.797Z,5.07
2022-09-17T17:30:35.513Z,7.05
2022-09-17T17:34:37.274Z,8.70
2022-09-17T17:38:39.159Z,11.45
2022-09-17T17:42:43.817Z,9.80
2022-09-17T17:46:45.576Z,7.47
2022-09-17T17:50:47.184Z,8.90
2022-09-17T17:54:48.855Z,7.95
2022-09-17T17:58:58.360Z,10.43
2022-09-17T18:03:00.111Z,6.85
2022-09-17T18:07:01.848Z,9.23
2022-09-17T18:11:04.577Z,6.57
2022-09-17T18:15:07.196Z,8.73
2022-09-17T18:19:12.287Z,8.07
2022-09-17T18:23:14.167Z,9.27
2022-09-17T18:27:15.841Z,9.30
2022-09-17T18:31:26.775Z,9.27
2022-09-17T18:35:29.188Z,9.55
2022-09-17T18:39:57.490Z,10.45
2022-09-17T18:43:52.517Z,16.00
2022-09-17T18:47:54.183Z,12.85
2022-09-17T18:51:55.831Z,9.30
2022-09-17T18:56:04.610Z,9.52
2022-09-17T19:00:08.834Z,11.57
2022-09-17T19:04:11.130Z,11.88
2022-09-17T19:08:13.080Z,11.00
2022-09-17T19:12:14.668Z,15.38
2022-09-17T19:16:16.981Z,7.35
2022-09-17T19:20:19.627Z,11.88
2022-09-17T19:24:21.311Z,16.83
2022-09-17T19:28:23.248Z,11.27
2022-09-17T19:32:25.206Z,11.43
2022-09-17T19:36:26.931Z,11.85
2022-09-17T19:40:28.557Z,10.07
2022-09-17T19:44:30.916Z,9.13
2022-09-17T19:48:35.662Z,9.68
2022-09-17T19:52:37.287Z,5.25
2022-09-17T19:56:39.034Z,7.87
2022-09-17T20:00:40.695Z,7.65
2022-09-17T20:04:42.385Z,4.85
2022-09-17T20:08:54.690Z,7.05
2022-09-17T20:12:57.301Z,2.60
2022-09-17T20:16:58.965Z,4.65
2022-09-17T20:21:00.641Z,4.53
2022-09-17T20:25:02.247Z,2.55
2022-09-17T20:29:04.347Z,2.85
2022-09-17T20:33:06.002Z,7.35
2022-09-17T20:37:13.516Z,4.05
2022-09-17T20:41:15.951Z,2.92
2022-09-17T20:45:17.538Z,3.28
2022-09-17T20:49:19.150Z,3.03
2022-09-17T20:53:20.811Z,5.97
2022-09-17T20:57:22.485Z,3.65
2022-09-17T21:01:32.109Z,3.45
2022-09-17T21:05:38.127Z,4.15
2022-09-17T21:09:41.883Z,5.20
2022-09-17T21:13:44.591Z,5.07
2022-09-17T21:17:48.041Z,3.87
2022-09-17T21:21:51.612Z,2.65
2022-09-17T21:26:00.887Z,5.78
2022-09-17T21:30:04.845Z,3.58
2022-09-17T21:34:09.714Z,5.62
2022-09-17T21:38:11.632Z,4.87
2022-09-17T21:42:13.247Z,4.65
2022-09-17T21:46:17.869Z,5.95
2022-09-17T21:50:19.462Z,5.70
2022-09-17T21:54:21.059Z,10.02
2022-09-17T21:58:22.815Z,5.43
2022-09-17T22:02:24.558Z,7.60
2022-09-17T22:06:28.663Z,10.52
2022-09-17T22:10:30.241Z,4.50
2022-09-17T22:14:32.123Z,9.82
2022-09-17T22:18:36.334Z,5.87
2022-09-17T22:22:37.935Z,4.68
2022-09-17T22:26:45.786Z,7.07
2022-09-17T22:30:47.496Z,8.15
2022-09-17T22:34:49.580Z,8.25
2022-09-17T22:38:56.409Z,4.87
2022-09-17T22:42:58.098Z,3.28
2022-09-17T22:46:59.835Z,9.23
2022-09-17T22:51:01.504Z,5.78
2022-09-17T22:55:03.279Z,6.30
2022-09-17T22:59:04.971Z,5.75
2022-09-17T23:03:06.625Z,5.55
2022-09-17T23:07:08.639Z,5.62
2022-09-17T23:11:17.145Z,5.10
2022-09-17T23:15:19.340Z,6.53
2022-09-17T23:19:21.247Z,6.20
2022-09-17T23:23:24.723Z,6.60
2022-09-17T23:27:26.501Z,8.43
2022-09-17T23:31:29.704Z,12.27
2022-09-17T23:35:33.215Z,7.03
2022-09-17T23:39:34.831Z,7.55
2022-09-17T23:43:36.550Z,4.72
2022-09-17T23:47:38.184Z,8.50
2022-09-17T23:51:39.911Z,7.30
2022-09-17T23:55:48.458Z,6.30
2022-09-17T23:59:50.074Z,9.43
